Time;durP1;ratioP1;P1;durP2;ratioP2;P2;SDS_P1;SDS_P2;PMS_P1;PMS_P2;Temp;Humidity;BMP_temperature;BMP_pressure;BME280_temperature;BME280_humidity;BME280_pressure;Samples;Min_cycle;Max_cycle;Signal;HPM_P1;HPM_P2
2023/06/30 00:01:33;;;;;;;12.50;10.80;;;21.20;51.90;;;;;;6111754;23;114278;-77
2023/06/30 00:04:01;;;;;;;12.73;10.50;;;21.20;52.00;;;;;;6111832;23;114038;-76
2023/06/30 00:06:29;;;;;;;15.25;12.30;;;21.10;52.00;;;;;;6111363;23;115127;-77
2023/06/30 00:08:57;;;;;;;13.07;9.75;;;21.00;52.00;;;;;;6110709;22;117861;-79
2023/06/30 00:11:24;;;;;;;16.25;11.73;;;21.00;52.20;;;;;;6113111;23;114158;-77
2023/06/30 00:13:52;;;;;;;14.80;11.77;;;20.90;52.30;;;;;;6136521;22;114242;-77
2023/06/30 00:16:19;;;;;;;13.50;11.05;;;20.80;52.40;;;;;;6111494;23;114847;-77
2023/06/30 00:18:47;;;;;;;17.13;13.40;;;20.80;52.40;;;;;;6110027;23;115094;-78
2023/06/30 00:21:14;;;;;;;13.02;10.25;;;20.80;52.40;;;;;;6113168;22;114232;-79
2023/06/30 00:23:41;;;;;;;15.23;13.27;;;20.70;52.70;;;;;;6113833;23;114025;-78
2023/06/30 00:26:09;;;;;;;18.10;13.43;;;20.70;52.80;;;;;;6085960;23;114968;-77
2023/06/30 00:28:37;;;;;;;14.20;11.52;;;20.70;52.80;;;;;;6135415;22;114454;-78
2023/06/30 00:31:05;;;;;;;14.27;12.60;;;20.80;52.70;;;;;;6111038;23;114172;-77
2023/06/30 00:33:32;;;;;;;13.07;10.35;;;20.80;52.60;;;;;;6112454;23;114171;-78
2023/06/30 00:36:01;;;;;;;13.27;10.80;;;20.80;52.60;;;;;;6135440;22;114869;-78
2023/06/30 00:38:28;;;;;;;15.05;12.13;;;20.80;52.50;;;;;;6110232;23;115104;-78
2023/06/30 00:40:56;;;;;;;14.35;11.20;;;20.80;52.50;;;;;;6111803;23;114255;-78
2023/06/30 00:43:23;;;;;;;15.75;10.45;;;20.70;52.60;;;;;;6085977;23;114212;-78
2023/06/30 00:45:51;;;;;;;13.23;10.70;;;20.60;52.70;;;;;;6110740;22;114968;-77
2023/06/30 00:48:20;;;;;;;12.73;10.57;;;20.30;53.30;;;;;;6112225;23;115883;-77
2023/06/30 00:50:47;;;;;;;11.70;9.55;;;20.30;53.40;;;;;;6111463;23;114316;-78
2023/06/30 00:53:15;;;;;;;12.50;9.80;;;20.30;53.30;;;;;;6087238;23;114333;-78
2023/06/30 00:55:44;;;;;;;14.63;10.50;;;20.30;53.40;;;;;;6111100;23;114920;-78
2023/06/30 00:58:11;;;;;;;12.70;9.88;;;20.30;53.40;;;;;;6086075;23;117201;-78
2023/06/30 01:00:39;;;;;;;12.57;10.00;;;20.30;53.40;;;;;;6136127;22;114456;-78
2023/06/30 01:03:35;;;;;;;12.55;9.75;;;20.40;53.40;;;;;;6086947;23;114693;-77
2023/06/30 01:06:17;;;;;;;10.77;9.32;;;20.50;52.70;;;;;;6088299;23;114656;-78
2023/06/30 01:09:02;;;;;;;10.80;9.48;;;20.30;53.20;;;;;;6111615;23;114580;-77
2023/06/30 01:11:30;;;;;;;9.50;8.57;;;20.40;53.30;;;;;;6112518;23;114894;-79
2023/06/30 01:13:58;;;;;;;10.73;9.38;;;20.40;53.10;;;;;;6088305;23;114231;-77
2023/06/30 01:16:26;;;;;;;9.88;8.88;;;20.30;53.20;;;;;;6111405;23;115464;-78
2023/06/30 01:18:54;;;;;;;9.75;8.73;;;20.20;53.10;;;;;;6111813;22;115651;-78
2023/06/30 01:21:21;;;;;;;10.95;9.32;;;20.00;53.40;;;;;;6087369;23;114313;-78
2023/06/30 01:23:53;;;;;;;10.38;9.25;;;19.90;54.10;;;;;;6112836;23;114233;-77
2023/06/30 01:26:21;;;;;;;11.57;9.73;;;20.00;54.00;;;;;;6111300;23;114846;-79
2023/06/30 01:28:50;;;;;;;9.82;8.82;;;20.10;53.60;;;;;;6086712;23;115653;-78
2023/06/30 01:31:19;;;;;;;10.30;8.85;;;20.10;53.70;;;;;;6088430;23;114461;-78
2023/06/30 01:33:46;;;;;;;10.27;8.52;;;20.00;53.40;;;;;;6112040;23;114132;-78
2023/06/30 01:36:13;;;;;;;10.10;8.65;;;19.90;53.50;;;;;;6111691;23;115336;-78
2023/06/30 01:38:41;;;;;;;9.93;8.93;;;19.80;53.70;;;;;;6113583;23;114563;-77
2023/06/30 01:41:08;;;;;;;9.68;8.30;;;19.80;54.20;;;;;;6113026;22;114006;-77
2023/06/30 01:43:35;;;;;;;9.82;8.82;;;19.70;54.80;;;;;;6088194;23;114154;-77
2023/06/30 01:46:03;;;;;;;9.82;8.35;;;19.70;54.70;;;;;;6111011;22;115424;-78
2023/06/30 01:48:32;;;;;;;11.57;8.95;;;19.80;54.50;;;;;;6087458;23;114491;-78
2023/06/30 01:50:59;;;;;;;10.55;9.45;;;19.90;54.30;;;;;;6113395;23;114484;-77
2023/06/30 01:53:26;;;;;;;10.45;9.45;;;20.00;54.00;;;;;;6088913;23;114335;-77
2023/06/30 01:55:56;;;;;;;10.57;8.73;;;20.10;53.90;;;;;;6111871;23;114916;-77
2023/06/30 01:58:24;;;;;;;9.05;7.60;;;20.30;53.80;;;;;;6111605;23;114524;-77
2023/06/30 02:00:51;;;;;;;15.18;12.55;;;20.40;53.50;;;;;;6088395;23;114334;-77
2023/06/30 02:03:18;;;;;;;9.63;8.43;;;20.50;53.00;;;;;;6113256;23;114194;-77
2023/06/30 02:05:48;;;;;;;9.30;8.30;;;20.50;53.10;;;;;;6113732;22;114998;-77
2023/06/30 02:08:16;;;;;;;12.77;8.82;;;20.60;53.00;;;;;;6136650;22;114838;-77
2023/06/30 02:10:43;;;;;;;9.82;8.82;;;20.70;52.80;;;;;;6113577;23;114348;-77
2023/06/30 02:13:10;;;;;;;10.88;8.40;;;20.70;52.60;;;;;;6114312;23;113983;-77
2023/06/30 02:15:38;;;;;;;9.40;8.23;;;20.80;52.40;;;;;;6111541;23;114948;-77
2023/06/30 02:18:05;;;;;;;12.75;8.98;;;20.80;52.30;;;;;;6087132;23;114642;-77
2023/06/30 02:20:32;;;;;;;9.50;8.32;;;20.80;52.10;;;;;;6113684;23;114338;-77
2023/06/30 02:23:00;;;;;;;11.07;8.85;;;20.90;52.10;;;;;;6137445;22;114256;-78
2023/06/30 02:25:27;;;;;;;10.75;8.48;;;20.90;52.00;;;;;;6136457;22;115293;-78
2023/06/30 02:27:54;;;;;;;9.80;7.88;;;20.90;51.90;;;;;;6087262;23;114689;-78
2023/06/30 02:30:21;;;;;;;17.52;11.63;;;20.90;52.00;;;;;;6113938;23;114025;-78
2023/06/30 02:32:48;;;;;;;13.43;11.15;;;21.00;51.70;;;;;;6112643;23;114266;-77
2023/06/30 02:35:15;;;;;;;10.68;9.50;;;20.90;51.80;;;;;;6111837;23;115057;-77
2023/06/30 02:37:43;;;;;;;11.55;8.95;;;21.00;51.80;;;;;;6112988;23;115016;-78
2023/06/30 02:40:10;;;;;;;10.45;8.73;;;21.00;51.70;;;;;;6087741;23;115507;-78
2023/06/30 02:42:37;;;;;;;11.13;8.38;;;21.00;51.70;;;;;;6112769;23;114319;-78
2023/06/30 02:45:10;;;;;;;11.88;10.32;;;21.00;51.70;;;;;;6113265;23;114825;-78
2023/06/30 02:47:38;;;;;;;9.13;8.18;;;21.00;51.60;;;;;;6111283;23;116449;-78
2023/06/30 02:50:07;;;;;;;9.63;8.25;;;21.00;51.60;;;;;;6112266;23;114431;-78
2023/06/30 02:52:37;;;;;;;11.98;9.00;;;21.00;51.50;;;;;;6113803;22;114496;-78
2023/06/30 02:55:04;;;;;;;10.10;8.98;;;21.00;51.50;;;;;;6086887;23;115208;-78
2023/06/30 02:57:32;;;;;;;11.02;8.98;;;21.00;51.50;;;;;;6113103;23;114967;-78
2023/06/30 03:00:00;;;;;;;12.13;8.70;;;21.00;51.50;;;;;;6111327;22;114563;-78
2023/06/30 03:02:28;;;;;;;13.20;8.77;;;20.90;51.50;;;;;;6137211;22;114304;-78
2023/06/30 03:04:56;;;;;;;13.43;9.70;;;20.90;51.50;;;;;;6136373;22;114903;-78
2023/06/30 03:07:25;;;;;;;12.82;10.50;;;20.90;51.50;;;;;;6111183;23;114870;-78
2023/06/30 03:09:54;;;;;;;13.43;10.77;;;20.90;51.20;;;;;;6137367;22;114392;-78
2023/06/30 03:12:22;;;;;;;10.10;8.10;;;20.90;51.10;;;;;;6112651;22;114071;-78
2023/06/30 03:14:49;;;;;;;9.25;7.72;;;20.80;51.50;;;;;;6086900;23;115489;-78
2023/06/30 03:17:16;;;;;;;10.00;7.97;;;20.80;51.60;;;;;;6111663;23;114725;-78
2023/06/30 03:19:44;;;;;;;9.07;8.07;;;20.80;51.70;;;;;;6113370;23;114065;-78
2023/06/30 03:22:11;;;;;;;9.30;7.45;;;20.80;51.40;;;;;;6088236;23;114321;-79
2023/06/30 03:24:38;;;;;;;10.43;7.78;;;21.10;51.40;;;;;;6085939;23;115006;-77
2023/06/30 03:27:06;;;;;;;9.60;7.97;;;21.30;51.10;;;;;;6086382;23;115056;-77
2023/06/30 03:29:33;;;;;;;11.07;9.05;;;21.60;50.50;;;;;;6136747;22;114308;-77
2023/06/30 03:32:01;;;;;;;12.25;9.43;;;21.80;49.80;;;;;;6112184;23;114240;-77
2023/06/30 03:34:29;;;;;;;11.45;7.82;;;22.10;48.90;;;;;;6110426;23;116008;-76
2023/06/30 03:36:57;;;;;;;9.90;7.68;;;22.20;48.60;;;;;;6111090;22;114438;-77
2023/06/30 03:39:24;;;;;;;9.45;7.90;;;22.40;48.40;;;;;;6111488;22;114309;-78
2023/06/30 03:41:51;;;;;;;8.27;7.40;;;22.80;47.70;;;;;;6113517;23;114172;-79
2023/06/30 03:44:19;;;;;;;8.43;6.97;;;23.00;47.20;;;;;;6135525;22;114856;-79
2023/06/30 03:46:46;;;;;;;9.50;7.40;;;23.30;46.80;;;;;;6110427;23;114554;-78
2023/06/30 03:49:13;;;;;;;8.10;6.50;;;23.50;46.20;;;;;;6136176;22;114030;-77
2023/06/30 03:51:41;;;;;;;8.70;7.13;;;23.70;45.40;;;;;;6112253;22;114228;-77
2023/06/30 03:54:09;;;;;;;8.35;7.07;;;23.90;44.70;;;;;;6135902;22;116490;-77
2023/06/30 03:56:36;;;;;;;9.93;6.78;;;23.90;44.80;;;;;;6086705;23;114458;-77
2023/06/30 03:59:03;;;;;;;7.30;6.22;;;23.90;45.00;;;;;;6111144;23;114264;-77
2023/06/30 04:01:33;;;;;;;9.55;6.90;;;24.00;44.70;;;;;;6113539;23;115880;-77
2023/06/30 04:04:02;;;;;;;11.13;7.03;;;23.90;44.90;;;;;;6112059;23;114796;-77
2023/06/30 04:06:30;;;;;;;8.75;7.53;;;23.70;44.90;;;;;;6110941;23;114606;-77
2023/06/30 04:08:58;;;;;;;8.82;7.20;;;23.30;45.10;;;;;;6087490;23;114278;-78
2023/06/30 04:11:25;;;;;;;7.95;7.15;;;22.90;45.80;;;;;;6113313;23;114522;-78
2023/06/30 04:13:53;;;;;;;8.27;7.43;;;22.60;46.80;;;;;;6136479;22;115448;-78
2023/06/30 04:16:20;;;;;;;8.82;7.20;;;22.50;47.10;;;;;;6111703;23;114616;-77
2023/06/30 04:18:47;;;;;;;7.57;5.88;;;22.60;47.20;;;;;;6112498;23;114190;-77
2023/06/30 04:21:14;;;;;;;7.45;6.60;;;22.80;46.70;;;;;;6113715;23;114146;-78
2023/06/30 04:23:42;;;;;;;7.57;6.25;;;22.80;46.60;;;;;;6112537;23;115439;-77
2023/06/30 04:26:09;;;;;;;6.78;5.68;;;23.00;46.40;;;;;;6113219;22;114666;-78
2023/06/30 04:28:36;;;;;;;8.20;6.93;;;23.10;45.90;;;;;;6113983;23;114048;-77
2023/06/30 04:31:04;;;;;;;10.13;6.22;;;23.30;45.80;;;;;;6112674;23;114288;-76
2023/06/30 04:33:33;;;;;;;6.47;5.85;;;23.30;45.70;;;;;;6112307;23;114884;-77
2023/06/30 04:36:00;;;;;;;7.78;6.10;;;23.20;45.80;;;;;;6111243;23;114831;-78
2023/06/30 04:38:27;;;;;;;9.95;6.50;;;23.30;45.80;;;;;;6112715;23;114105;-78
2023/06/30 04:40:55;;;;;;;6.45;5.75;;;23.30;45.80;;;;;;6114883;23;114395;-77
2023/06/30 04:43:22;;;;;;;6.45;5.75;;;23.30;45.40;;;;;;6087342;23;114986;-78
2023/06/30 04:45:51;;;;;;;7.40;5.60;;;23.30;45.70;;;;;;6112430;23;114513;-77
2023/06/30 04:48:18;;;;;;;6.85;5.82;;;23.40;45.30;;;;;;6113639;23;114009;-77
2023/06/30 04:50:45;;;;;;;7.10;5.72;;;23.40;45.40;;;;;;6115215;22;114079;-77
2023/06/30 04:53:12;;;;;;;18.20;5.93;;;23.50;45.50;;;;;;6114301;22;114846;-78
2023/06/30 04:55:39;;;;;;;7.45;5.32;;;23.60;45.40;;;;;;6113983;23;116402;-78
2023/06/30 04:58:07;;;;;;;7.72;5.50;;;23.60;45.00;;;;;;6113779;23;114150;-78
2023/06/30 05:00:34;;;;;;;6.32;5.53;;;23.50;45.30;;;;;;6112769;23;114857;-78
2023/06/30 05:03:04;;;;;;;8.30;5.25;;;23.60;45.40;;;;;;6112689;23;115256;-78
2023/06/30 05:05:31;;;;;;;6.50;5.00;;;23.60;45.10;;;;;;6113741;23;114667;-77
2023/06/30 05:07:58;;;;;;;6.22;5.30;;;23.60;44.90;;;;;;6115025;23;114033;-78
2023/06/30 05:10:25;;;;;;;7.55;5.40;;;23.50;45.10;;;;;;6114896;23;114402;-78
2023/06/30 05:12:53;;;;;;;6.28;5.40;;;23.50;45.40;;;;;;6114145;23;114853;-78
2023/06/30 05:15:20;;;;;;;8.13;6.28;;;23.70;45.30;;;;;;6114062;23;114153;-78
2023/06/30 05:17:48;;;;;;;7.05;5.70;;;23.80;45.10;;;;;;6065178;23;114021;-78
2023/06/30 05:20:17;;;;;;;7.40;5.60;;;23.90;44.80;;;;;;6089080;23;114167;-78
2023/06/30 05:22:44;;;;;;;5.78;5.07;;;23.90;44.70;;;;;;6113244;22;114788;-78
2023/06/30 05:25:11;;;;;;;6.68;5.15;;;24.00;44.50;;;;;;6113042;23;114559;-78
2023/06/30 05:27:38;;;;;;;7.20;5.25;;;24.10;44.70;;;;;;6113850;23;114209;-77
2023/06/30 05:30:06;;;;;;;6.85;5.03;;;24.20;44.30;;;;;;6113047;23;114175;-78
2023/06/30 05:32:35;;;;;;;6.53;5.10;;;24.30;44.20;;;;;;6113377;23;114915;-79
2023/06/30 05:35:02;;;;;;;5.93;4.90;;;24.40;44.20;;;;;;6113484;23;115191;-78
2023/06/30 05:37:30;;;;;;;5.97;4.80;;;24.40;43.70;;;;;;6112894;23;114444;-78
2023/06/30 05:39:58;;;;;;;6.22;5.18;;;24.30;44.00;;;;;;6114402;23;114578;-77
2023/06/30 05:42:27;;;;;;;6.00;5.05;;;24.30;44.50;;;;;;6113499;22;114830;-78
2023/06/30 05:44:54;;;;;;;9.63;5.47;;;24.30;44.40;;;;;;6113783;23;114645;-78
2023/06/30 05:47:21;;;;;;;7.95;5.22;;;24.40;44.40;;;;;;6087903;23;114447;-78
2023/06/30 05:49:49;;;;;;;8.25;5.05;;;24.40;43.90;;;;;;6114208;23;114204;-77
2023/06/30 05:52:17;;;;;;;6.93;4.90;;;24.50;44.10;;;;;;6086921;23;114856;-77
2023/06/30 05:54:44;;;;;;;6.13;4.88;;;24.70;44.10;;;;;;6113516;22;116453;-77
2023/06/30 05:57:11;;;;;;;7.78;5.32;;;24.80;43.80;;;;;;6114314;23;114353;-78
2023/06/30 05:59:40;;;;;;;7.10;5.20;;;24.80;43.70;;;;;;6114123;23;114511;-78
2023/06/30 06:02:08;;;;;;;5.93;4.55;;;24.90;43.70;;;;;;6112804;23;114834;-78
2023/06/30 06:04:48;;;;;;;6.15;5.00;;;25.00;43.70;;;;;;6112198;23;114654;-78
2023/06/30 06:07:15;;;;;;;6.07;4.90;;;25.10;43.10;;;;;;6112956;23;114195;-78
2023/06/30 06:09:42;;;;;;;5.60;4.35;;;25.10;43.10;;;;;;6114430;23;114157;-78
2023/06/30 06:12:09;;;;;;;9.32;5.60;;;25.30;42.90;;;;;;6112524;23;114860;-77
2023/06/30 06:14:37;;;;;;;5.57;4.57;;;25.40;42.50;;;;;;6087628;23;114610;-77
2023/06/30 06:17:04;;;;;;;6.25;4.53;;;25.60;42.30;;;;;;6113798;23;114058;-78
2023/06/30 06:19:32;;;;;;;6.22;4.30;;;25.70;42.00;;;;;;6114272;23;114290;-78
2023/06/30 06:22:00;;;;;;;6.45;4.55;;;25.80;41.90;;;;;;6112786;23;115554;-78
2023/06/30 06:24:28;;;;;;;5.82;4.53;;;25.80;41.30;;;;;;6112121;23;114614;-78
2023/06/30 06:26:55;;;;;;;6.35;4.38;;;25.80;41.30;;;;;;6088308;23;114176;-78
2023/06/30 06:29:22;;;;;;;5.85;4.20;;;25.80;41.10;;;;;;6114311;23;114371;-80
2023/06/30 06:31:53;;;;;;;6.15;4.43;;;25.70;41.90;;;;;;6111641;23;116597;-78
2023/06/30 06:34:21;;;;;;;6.10;4.80;;;25.80;42.30;;;;;;6112169;22;115386;-78
2023/06/30 06:36:48;;;;;;;5.82;3.92;;;25.90;42.00;;;;;;6114118;23;114043;-78
2023/06/30 06:39:16;;;;;;;6.35;4.28;;;26.10;41.50;;;;;;6137234;22;114310;-78
2023/06/30 06:41:44;;;;;;;6.20;4.25;;;26.20;41.20;;;;;;6135451;22;116105;-77
2023/06/30 06:44:16;;;;;;;5.97;3.90;;;26.30;40.70;;;;;;6111505;22;114662;-78
2023/06/30 06:46:43;;;;;;;6.47;4.38;;;26.50;40.70;;;;;;6113752;23;114352;-78
2023/06/30 06:49:10;;;;;;;5.22;4.13;;;26.60;40.20;;;;;;6112068;23;114428;-78
2023/06/30 06:51:37;;;;;;;7.65;4.28;;;26.80;40.20;;;;;;6112469;23;114892;-77
2023/06/30 06:54:05;;;;;;;8.45;4.93;;;26.80;39.60;;;;;;6112550;23;115646;-77
2023/06/30 06:56:33;;;;;;;9.35;5.75;;;26.90;39.90;;;;;;6112520;22;114251;-77
2023/06/30 06:59:00;;;;;;;9.70;5.45;;;27.00;39.50;;;;;;6112060;23;114640;-77
2023/06/30 07:01:27;;;;;;;11.65;6.75;;;27.00;39.20;;;;;;6110557;23;114895;-78
2023/06/30 07:03:55;;;;;;;11.98;6.28;;;27.00;39.10;;;;;;6112155;23;114589;-78
2023/06/30 07:06:22;;;;;;;9.93;6.20;;;27.10;39.70;;;;;;6112179;23;114092;-79
2023/06/30 07:08:50;;;;;;;9.95;5.57;;;27.20;38.80;;;;;;6113271;23;114266;-78
2023/06/30 07:11:18;;;;;;;12.32;6.40;;;27.10;38.00;;;;;;6111178;23;114868;-78
2023/06/30 07:13:45;;;;;;;11.65;5.90;;;27.00;38.50;;;;;;6111938;23;114987;-78
2023/06/30 07:16:13;;;;;;;12.07;6.93;;;27.00;38.60;;;;;;6112866;23;114461;-77
2023/06/30 07:18:40;;;;;;;14.55;7.82;;;27.10;38.70;;;;;;6086849;23;114260;-78
2023/06/30 07:21:07;;;;;;;13.55;6.78;;;27.20;38.40;;;;;;6112929;23;117064;-79
2023/06/30 07:23:34;;;;;;;14.27;7.05;;;27.30;38.20;;;;;;6113354;23;114690;-78
2023/06/30 07:26:01;;;;;;;13.60;6.85;;;27.30;38.40;;;;;;6114350;23;114144;-78
2023/06/30 07:28:28;;;;;;;12.40;6.20;;;27.40;37.70;;;;;;6113766;23;114262;-78
2023/06/30 07:30:55;;;;;;;10.20;5.60;;;27.50;38.10;;;;;;6112160;22;116009;-78
2023/06/30 07:33:25;;;;;;;11.43;5.22;;;27.40;37.50;;;;;;6112624;23;114760;-78
2023/06/30 07:35:52;;;;;;;11.90;6.47;;;27.30;38.30;;;;;;6113937;23;114140;-77
2023/06/30 07:38:19;;;;;;;14.10;5.97;;;27.30;38.00;;;;;;6112468;23;114305;-77
2023/06/30 07:40:47;;;;;;;10.32;5.50;;;27.30;37.90;;;;;;6112950;23;115093;-78
2023/06/30 07:43:23;;;;;;;9.07;5.32;;;27.30;37.70;;;;;;6111635;23;114672;-78
2023/06/30 07:45:50;;;;;;;9.25;5.47;;;27.30;38.10;;;;;;6112963;23;114953;-78
2023/06/30 07:48:17;;;;;;;9.57;5.72;;;27.30;38.20;;;;;;6112785;23;114161;-77
2023/06/30 07:50:45;;;;;;;10.15;4.63;;;27.20;38.10;;;;;;6086618;23;115890;-76
2023/06/30 07:53:29;;;;;;;5.93;3.80;;;27.30;38.20;;;;;;6112945;23;114535;-77
2023/06/30 07:55:56;;;;;;;6.95;4.30;;;27.30;37.70;;;;;;6112063;23;114376;-77
2023/06/30 07:58:23;;;;;;;7.10;3.65;;;27.30;37.90;;;;;;6113577;22;114346;-78
2023/06/30 08:00:50;;;;;;;8.60;4.03;;;27.20;38.20;;;;;;6135892;22;114844;-77
2023/06/30 08:03:18;;;;;;;7.10;3.95;;;27.30;39.00;;;;;;6110928;23;115789;-78
2023/06/30 08:05:46;;;;;;;7.70;3.72;;;27.30;38.60;;;;;;6113810;23;114120;-78
2023/06/30 08:08:14;;;;;;;8.10;3.88;;;27.50;38.40;;;;;;6114073;22;114247;-77
2023/06/30 08:10:41;;;;;;;7.03;3.90;;;27.50;38.40;;;;;;6112579;23;116169;-77
2023/06/30 08:13:10;;;;;;;6.18;2.65;;;27.60;38.20;;;;;;6111542;23;114686;-78
2023/06/30 08:15:38;;;;;;;4.88;2.92;;;27.60;36.60;;;;;;6112445;22;114080;-78
2023/06/30 08:18:06;;;;;;;5.50;2.85;;;27.70;37.10;;;;;;6137844;22;114166;-78
2023/06/30 08:20:37;;;;;;;6.88;3.00;;;27.80;36.80;;;;;;6113265;22;114888;-78
2023/06/30 08:23:05;;;;;;;5.38;3.30;;;27.90;36.20;;;;;;6113660;23;114587;-79
2023/06/30 08:25:32;;;;;;;6.10;3.05;;;27.90;36.20;;;;;;6114884;23;114001;-79
2023/06/30 08:27:59;;;;;;;4.13;2.80;;;27.90;36.20;;;;;;6113882;23;114364;-78
2023/06/30 08:30:27;;;;;;;5.80;2.55;;;27.90;36.30;;;;;;6137301;22;114874;-78
2023/06/30 08:32:54;;;;;;;3.22;2.47;;;28.00;36.80;;;;;;6087474;23;115789;-78
2023/06/30 08:35:23;;;;;;;4.95;2.70;;;28.10;36.00;;;;;;6113558;23;114178;-78
2023/06/30 08:37:51;;;;;;;3.55;2.53;;;28.20;36.30;;;;;;6113980;23;114210;-78
2023/06/30 08:40:31;;;;;;;4.20;2.55;;;28.30;35.90;;;;;;6113515;23;114792;-77
2023/06/30 08:42:59;;;;;;;4.82;2.72;;;28.40;36.40;;;;;;6112197;23;114944;-77
2023/06/30 08:45:27;;;;;;;4.50;2.88;;;28.50;36.40;;;;;;6112734;23;114593;-77
2023/06/30 08:47:59;;;;;;;4.15;2.80;;;28.60;35.50;;;;;;6089183;23;114236;-78
2023/06/30 08:50:27;;;;;;;4.80;2.80;;;28.70;35.20;;;;;;6113656;23;115097;-78
2023/06/30 08:52:57;;;;;;;5.35;2.58;;;28.70;34.10;;;;;;6112097;23;114638;-79
2023/06/30 08:55:24;;;;;;;4.20;2.83;;;28.60;34.90;;;;;;6113169;23;114366;-77
2023/06/30 08:57:56;;;;;;;4.18;2.42;;;28.70;35.70;;;;;;6088748;23;114444;-77
2023/06/30 09:00:25;;;;;;;3.33;2.47;;;28.80;34.00;;;;;;6112801;23;114915;-78
2023/06/30 09:02:54;;;;;;;4.05;2.38;;;28.80;34.10;;;;;;6112200;23;114667;-76
2023/06/30 09:05:23;;;;;;;4.68;2.55;;;28.80;33.90;;;;;;6113086;23;114129;-78
2023/06/30 09:07:56;;;;;;;4.03;2.03;;;29.00;33.30;;;;;;6112805;23;114435;-78
2023/06/30 09:10:26;;;;;;;4.65;2.35;;;29.10;33.20;;;;;;6112885;23;114859;-78
2023/06/30 09:12:59;;;;;;;3.92;2.38;;;29.10;33.50;;;;;;6111814;23;114591;-78
2023/06/30 09:15:27;;;;;;;3.92;2.20;;;29.20;33.00;;;;;;6089516;23;114197;-78
2023/06/30 09:17:54;;;;;;;3.40;2.20;;;29.30;32.20;;;;;;6113052;23;114235;-79
2023/06/30 09:20:22;;;;;;;5.60;2.40;;;29.30;32.00;;;;;;6111843;23;114869;-78
2023/06/30 09:22:50;;;;;;;4.50;2.80;;;29.30;31.10;;;;;;6111576;23;115999;-78
2023/06/30 09:25:26;;;;;;;5.20;3.65;;;29.30;32.00;;;;;;6113195;23;114215;-77
2023/06/30 09:27:54;;;;;;;7.82;2.63;;;29.30;32.20;;;;;;6138170;22;114225;-78
2023/06/30 09:30:32;;;;;;;4.57;2.60;;;29.30;32.60;;;;;;6111763;23;115258;-77
2023/06/30 09:33:01;;;;;;;2.95;1.88;;;29.30;32.70;;;;;;6112251;22;115400;-78
2023/06/30 09:35:38;;;;;;;4.90;2.60;;;29.20;31.80;;;;;;6113225;22;114075;-78
2023/06/30 09:38:15;;;;;;;3.95;2.28;;;29.20;32.10;;;;;;6114172;23;114034;-79
2023/06/30 09:40:43;;;;;;;4.82;2.17;;;29.20;32.40;;;;;;6111822;23;116414;-79
2023/06/30 09:43:22;;;;;;;5.43;2.53;;;29.20;32.50;;;;;;6111936;23;114640;-77
2023/06/30 09:45:54;;;;;;;4.30;2.38;;;29.30;32.80;;;;;;6114594;23;114362;-78
2023/06/30 09:48:32;;;;;;;3.42;2.05;;;29.30;31.90;;;;;;6114416;23;114275;-77
2023/06/30 09:50:59;;;;;;;4.38;2.70;;;29.20;31.80;;;;;;6113101;22;114769;-78
2023/06/30 09:53:37;;;;;;;3.15;1.98;;;29.30;30.80;;;;;;6087796;23;114730;-78
2023/06/30 09:56:04;;;;;;;5.78;2.20;;;29.30;30.90;;;;;;6114202;23;114062;-79
2023/06/30 09:58:31;;;;;;;4.22;2.08;;;29.10;30.80;;;;;;6114533;23;114184;-78
2023/06/30 10:01:05;;;;;;;5.70;2.33;;;29.20;30.90;;;;;;6112253;23;115612;-77
2023/06/30 10:03:32;;;;;;;4.40;2.58;;;29.20;31.80;;;;;;6112611;23;116653;-77
2023/06/30 10:06:00;;;;;;;3.85;2.20;;;29.20;32.20;;;;;;6112795;23;114375;-78
2023/06/30 10:08:27;;;;;;;4.78;2.10;;;29.20;32.30;;;;;;6112743;23;114145;-78
2023/06/30 10:10:54;;;;;;;4.13;2.35;;;29.20;32.50;;;;;;6111624;23;114938;-78
2023/06/30 10:13:25;;;;;;;5.43;2.45;;;29.30;31.70;;;;;;6087328;23;117361;-78
2023/06/30 10:15:52;;;;;;;3.90;2.10;;;29.20;31.50;;;;;;6113035;23;114286;-77
2023/06/30 10:18:20;;;;;;;3.65;2.13;;;29.10;32.40;;;;;;6114537;23;114414;-78
2023/06/30 10:20:47;;;;;;;4.47;2.30;;;29.10;31.90;;;;;;6087061;23;115962;-77
2023/06/30 10:23:20;;;;;;;3.85;2.40;;;29.10;32.10;;;;;;6111521;23;116220;-77
2023/06/30 10:26:07;;;;;;;17.58;2.30;;;29.10;32.00;;;;;;6112444;23;114031;-78
2023/06/30 10:28:35;;;;;;;3.70;2.28;;;29.10;32.00;;;;;;6112769;23;114241;-77
2023/06/30 10:31:03;;;;;;;5.15;2.30;;;29.10;32.30;;;;;;6111644;23;115179;-78
2023/06/30 10:33:30;;;;;;;4.22;2.45;;;29.10;32.30;;;;;;6111551;23;115708;-78
2023/06/30 10:35:58;;;;;;;5.20;2.33;;;29.10;32.50;;;;;;6112826;23;114375;-77
2023/06/30 10:38:26;;;;;;;4.35;1.98;;;29.10;32.00;;;;;;6113962;23;114101;-78
2023/06/30 10:41:22;;;;;;;4.22;2.10;;;29.30;32.30;;;;;;6111179;23;114784;-78
2023/06/30 10:44:01;;;;;;;4.97;2.78;;;29.30;32.60;;;;;;6100752;23;114798;-79
2023/06/30 10:46:52;;;;;;;5.38;2.35;;;29.40;31.80;;;;;;6113971;23;114245;-78
2023/06/30 10:49:34;;;;;;;5.50;3.10;;;29.40;32.40;;;;;;6114008;23;114259;-78
2023/06/30 10:52:07;;;;;;;3.58;2.13;;;29.40;32.30;;;;;;6135279;22;114931;-77
2023/06/30 10:54:45;;;;;;;4.00;2.28;;;29.30;32.20;;;;;;6086683;23;117559;-77
2023/06/30 10:57:17;;;;;;;3.88;2.45;;;29.20;32.50;;;;;;6113745;23;114131;-77
2023/06/30 10:59:48;;;;;;;4.18;2.65;;;29.30;33.20;;;;;;6113571;23;114352;-78
2023/06/30 11:02:18;;;;;;;5.38;2.45;;;29.30;33.50;;;;;;6112448;23;114870;-78
2023/06/30 11:04:46;;;;;;;6.70;2.40;;;29.40;32.90;;;;;;6112609;23;114549;-77
2023/06/30 11:07:24;;;;;;;3.97;2.13;;;29.40;32.50;;;;;;6086526;23;114223;-77
2023/06/30 11:09:56;;;;;;;4.32;2.20;;;29.50;32.60;;;;;;6088203;23;114572;-77
2023/06/30 11:12:25;;;;;;;4.15;2.35;;;29.50;33.10;;;;;;6112742;23;114973;-77
2023/06/30 11:14:53;;;;;;;5.07;2.20;;;29.60;32.70;;;;;;6111834;22;115877;-77
2023/06/30 11:17:20;;;;;;;3.60;2.20;;;29.60;32.40;;;;;;6113421;23;114329;-78
2023/06/30 11:20:12;;;;;;;5.05;2.47;;;29.60;32.10;;;;;;6114057;22;114067;-78
2023/06/30 11:22:40;;;;;;;4.18;2.58;;;29.70;32.60;;;;;;6112831;23;115932;-79
2023/06/30 11:25:11;;;;;;;6.50;2.63;;;29.60;32.90;;;;;;6111418;23;115138;-77
2023/06/30 11:27:38;;;;;;;3.50;2.20;;;29.70;32.60;;;;;;6113839;22;114216;-78
2023/06/30 11:30:06;;;;;;;3.75;2.17;;;29.70;32.60;;;;;;6113925;22;114160;-79
2023/06/30 11:32:36;;;;;;;4.03;2.20;;;29.80;32.70;;;;;;6112135;23;116013;-80
2023/06/30 11:35:07;;;;;;;5.13;2.40;;;29.80;32.10;;;;;;6111661;23;114558;-79
2023/06/30 11:37:36;;;;;;;3.92;2.20;;;29.70;32.10;;;;;;6114023;22;114288;-79
2023/06/30 11:40:06;;;;;;;4.43;2.20;;;29.70;31.80;;;;;;6113978;23;114119;-79
2023/06/30 11:42:38;;;;;;;3.30;2.08;;;29.70;31.30;;;;;;6110382;23;114925;-80
2023/06/30 11:45:06;;;;;;;4.53;2.30;;;29.60;32.20;;;;;;6111189;23;115592;-78
2023/06/30 11:47:34;;;;;;;4.63;2.45;;;29.50;32.60;;;;;;6111985;23;114355;-78
2023/06/30 11:50:08;;;;;;;3.78;2.22;;;29.50;32.10;;;;;;6113374;23;114193;-78
2023/06/30 11:52:36;;;;;;;;;;;29.60;32.30;;;;;;6112769;23;114939;-78
2023/06/30 11:55:11;;;;;;;5.07;2.33;;;29.40;32.70;;;;;;6135776;22;114778;-77
2023/06/30 11:57:39;;;;;;;4.60;2.40;;;29.30;32.20;;;;;;6113351;23;114209;-78
2023/06/30 12:00:17;;;;;;;4.13;2.25;;;29.30;32.00;;;;;;6113781;23;114283;-79
2023/06/30 12:02:58;;;;;;;5.00;2.40;;;29.30;32.30;;;;;;6112691;22;116104;-79
2023/06/30 12:05:26;;;;;;;5.72;2.40;;;29.30;32.30;;;;;;6110796;23;115898;-79
2023/06/30 12:07:57;;;;;;;4.75;2.22;;;29.30;32.30;;;;;;6111620;23;114331;-79
2023/06/30 12:10:37;;;;;;;3.33;2.05;;;29.30;32.40;;;;;;6112984;23;114171;-78
2023/06/30 12:13:08;;;;;;;4.28;2.50;;;29.30;32.70;;;;;;6087308;23;118615;-79
2023/06/30 12:15:36;;;;;;;4.30;2.58;;;29.30;32.90;;;;;;6085787;23;118367;-78
2023/06/30 12:18:04;;;;;;;5.88;2.30;;;29.20;32.80;;;;;;6112442;22;114178;-79
2023/06/30 12:20:36;;;;;;;4.55;2.40;;;29.10;32.90;;;;;;6135896;22;114175;-78
2023/06/30 12:23:07;;;;;;;3.97;2.33;;;29.10;33.30;;;;;;6112046;22;114786;-78
2023/06/30 12:25:35;;;;;;;3.67;2.60;;;29.10;33.50;;;;;;6111298;23;116661;-78
2023/06/30 12:28:04;;;;;;;3.80;2.40;;;29.00;33.30;;;;;;6110926;23;114358;-78
2023/06/30 12:30:31;;;;;;;4.05;2.40;;;29.00;33.10;;;;;;6063261;23;114325;-79
2023/06/30 12:32:59;;;;;;;5.82;2.95;;;28.80;33.20;;;;;;6060711;23;116606;-79
2023/06/30 12:35:28;;;;;;;4.80;2.65;;;28.70;33.60;;;;;;6111977;23;114534;-79
2023/06/30 12:37:56;;;;;;;3.50;2.60;;;28.40;34.30;;;;;;6111768;23;114457;-77
2023/06/30 12:40:24;;;;;;;4.32;2.83;;;28.10;34.70;;;;;;6111915;23;114257;-77
2023/06/30 12:42:56;;;;;;;5.43;2.90;;;28.00;35.40;;;;;;6111629;23;114809;-79